Time;durP1;ratioP1;P1;durP2;ratioP2;P2;SDS_P1;SDS_P2;PMS_P1;PMS_P2;Temp;Humidity;BMP_temperature;BMP_pressure;BME280_temperature;BME280_humidity;BME280_pressure;Samples;Min_cycle;Max_cycle;Signal;HPM_P1;HPM_P2
2023/03/25 00:01:33;;;;;;;7.13;3.72;;;13.60;99.90;;;;;;5095825;28;20222;-82
2023/03/25 00:04:02;;;;;;;7.05;4.43;;;13.60;99.90;;;;;;5094051;28;20225;-83
2023/03/25 00:06:30;;;;;;;8.55;4.28;;;13.60;99.90;;;;;;5095331;28;20562;-83
2023/03/25 00:08:56;;;;;;;7.25;4.65;;;13.60;99.90;;;;;;5095371;28;20171;-83
2023/03/25 00:11:22;;;;;;;12.15;4.20;;;13.60;99.90;;;;;;5095881;28;20177;-83
2023/03/25 00:13:48;;;;;;;8.18;4.05;;;13.50;99.90;;;;;;5095541;28;20202;-84
2023/03/25 00:16:15;;;;;;;7.93;4.32;;;13.50;99.90;;;;;;5094210;28;20516;-83
2023/03/25 00:18:40;;;;;;;7.35;4.03;;;13.50;99.90;;;;;;5095105;28;20175;-84
2023/03/25 00:21:10;;;;;;;7.47;4.28;;;13.50;99.90;;;;;;5095174;28;20664;-84
2023/03/25 00:23:37;;;;;;;9.20;4.65;;;13.40;99.90;;;;;;5093874;28;20238;-84
2023/03/25 00:26:03;;;;;;;8.70;4.05;;;13.40;99.90;;;;;;5093991;28;20209;-83
2023/03/25 00:28:32;;;;;;;8.02;4.22;;;13.40;99.90;;;;;;5077377;28;20221;-83
2023/03/25 00:31:00;;;;;;;10.48;4.68;;;13.40;99.90;;;;;;5095077;28;20178;-84
2023/03/25 00:33:26;;;;;;;8.57;4.45;;;13.40;99.90;;;;;;5095132;28;20179;-84
2023/03/25 00:35:57;;;;;;;6.45;3.80;;;13.30;99.90;;;;;;5094550;28;20177;-84
2023/03/25 00:38:32;;;;;;;7.30;3.72;;;13.30;99.90;;;;;;5078100;28;20179;-84
2023/03/25 00:41:07;;;;;;;9.32;4.38;;;13.30;99.90;;;;;;5093828;28;20567;-84
2023/03/25 00:43:33;;;;;;;7.65;3.55;;;13.20;99.90;;;;;;5093760;28;20270;-84
2023/03/25 00:45:59;;;;;;;9.02;4.40;;;13.20;99.90;;;;;;5092472;28;20610;-84
2023/03/25 00:48:26;;;;;;;6.35;4.13;;;13.20;99.90;;;;;;5060285;28;20569;-84
2023/03/25 00:50:52;;;;;;;5.85;3.15;;;13.20;99.90;;;;;;5076886;28;20181;-84
2023/03/25 00:53:17;;;;;;;5.72;3.33;;;13.20;99.90;;;;;;5094487;28;20186;-84
2023/03/25 00:55:43;;;;;;;6.03;3.53;;;13.20;99.90;;;;;;5076902;28;20179;-84
2023/03/25 00:58:09;;;;;;;6.38;3.47;;;13.10;99.90;;;;;;5094239;28;20182;-84
2023/03/25 01:00:35;;;;;;;12.75;5.13;;;13.10;99.90;;;;;;5088542;28;20179;-84
2023/03/25 01:03:02;;;;;;;9.23;4.03;;;13.00;99.90;;;;;;5072586;28;20310;-83
2023/03/25 01:05:28;;;;;;;8.43;3.92;;;13.10;99.90;;;;;;5074251;28;20187;-82
2023/03/25 01:07:54;;;;;;;7.80;4.72;;;13.00;99.90;;;;;;5074390;28;20640;-84
2023/03/25 01:10:21;;;;;;;7.85;3.75;;;13.00;99.90;;;;;;5074135;28;20240;-84
2023/03/25 01:12:47;;;;;;;8.63;4.50;;;13.00;99.90;;;;;;5074174;28;20258;-83
2023/03/25 01:15:13;;;;;;;6.82;4.22;;;12.90;99.90;;;;;;5072785;28;20507;-83
2023/03/25 01:17:39;;;;;;;6.68;4.13;;;12.80;99.90;;;;;;5074122;28;20178;-83
2023/03/25 01:20:07;;;;;;;6.43;4.35;;;12.80;99.90;;;;;;5072255;28;20182;-83
2023/03/25 01:22:33;;;;;;;5.03;3.38;;;12.80;99.90;;;;;;5073385;28;20234;-83
2023/03/25 01:24:59;;;;;;;8.55;4.72;;;;;;;;;;5056107;28;20175;-84
2023/03/25 01:27:25;;;;;;;11.02;4.90;;;12.80;99.90;;;;;;5074085;28;20172;-83
2023/03/25 01:29:50;;;;;;;9.35;4.50;;;12.80;99.90;;;;;;5072608;28;20179;-83
2023/03/25 01:32:16;;;;;;;8.48;4.55;;;12.70;99.90;;;;;;5072476;28;20187;-83
2023/03/25 01:34:42;;;;;;;10.27;4.75;;;12.60;99.90;;;;;;5072656;28;20183;-84
2023/03/25 01:37:08;;;;;;;9.57;5.18;;;12.60;99.90;;;;;;5072249;28;20709;-84
2023/03/25 01:39:34;;;;;;;9.80;4.75;;;12.60;99.90;;;;;;5073647;28;20636;-84
2023/03/25 01:42:00;;;;;;;8.68;4.32;;;12.60;99.90;;;;;;5073047;28;20209;-85
2023/03/25 01:44:26;;;;;;;8.55;4.45;;;12.60;99.90;;;;;;5072802;28;20667;-84
2023/03/25 01:46:52;;;;;;;9.27;4.72;;;12.50;99.90;;;;;;5072279;28;20219;-83
2023/03/25 01:49:30;;;;;;;5.93;4.00;;;12.50;99.90;;;;;;5072207;28;20209;-85
2023/03/25 01:52:00;;;;;;;7.35;4.78;;;12.50;99.90;;;;;;5073695;28;20203;-83
2023/03/25 01:54:26;;;;;;;8.88;5.00;;;12.60;99.90;;;;;;5074023;28;20182;-83
2023/03/25 01:56:52;;;;;;;10.10;4.72;;;12.50;99.90;;;;;;5071998;28;20195;-84
2023/03/25 01:59:23;;;;;;;5.80;4.43;;;12.50;99.90;;;;;;5038980;28;20224;-82
2023/03/25 02:01:50;;;;;;;6.60;4.40;;;12.50;99.90;;;;;;5073787;28;20590;-83
2023/03/25 02:04:26;;;;;;;8.50;4.05;;;12.50;99.90;;;;;;5073825;28;20183;-84
2023/03/25 02:06:53;;;;;;;7.90;4.40;;;12.40;99.90;;;;;;5073244;28;20216;-83
2023/03/25 02:09:21;;;;;;;8.20;5.10;;;12.40;99.90;;;;;;5073609;28;20179;-84
2023/03/25 02:11:47;;;;;;;6.95;4.55;;;12.40;99.90;;;;;;5073472;28;20175;-84
2023/03/25 02:14:18;;;;;;;7.20;3.85;;;12.40;99.90;;;;;;5055472;28;20172;-84
2023/03/25 02:17:28;;;;;;;7.30;4.40;;;12.40;99.90;;;;;;5073338;28;20264;-83
2023/03/25 02:20:06;;;;;;;7.75;4.70;;;12.40;99.90;;;;;;5051324;28;20193;-84
2023/03/25 02:22:58;;;;;;;9.65;4.35;;;12.40;99.90;;;;;;5073435;28;20235;-84
2023/03/25 02:25:38;;;;;;;8.27;4.32;;;12.30;99.90;;;;;;5072520;28;20228;-85
2023/03/25 02:28:46;;;;;;;8.20;4.53;;;12.30;99.90;;;;;;5072071;28;20557;-84
2023/03/25 02:31:24;;;;;;;8.25;4.45;;;12.30;99.90;;;;;;5071433;28;20589;-84
2023/03/25 02:34:28;;;;;;;9.95;5.50;;;12.30;99.90;;;;;;5071730;28;20174;-84
2023/03/25 02:37:30;;;;;;;7.13;4.35;;;12.30;99.90;;;;;;5071768;28;20201;-84
2023/03/25 02:40:11;;;;;;;10.63;4.95;;;12.30;99.90;;;;;;5072850;28;20178;-83
2023/03/25 02:42:45;;;;;;;11.10;4.60;;;12.30;99.90;;;;;;5073314;28;20219;-83
2023/03/25 02:45:24;;;;;;;9.13;4.47;;;12.30;99.90;;;;;;5072807;28;20199;-84
2023/03/25 02:47:53;;;;;;;8.27;4.82;;;12.30;99.90;;;;;;5073179;28;20195;-83
2023/03/25 02:50:42;;;;;;;8.70;4.57;;;12.30;99.90;;;;;;5071614;28;20265;-83
2023/03/25 02:53:14;;;;;;;10.43;5.25;;;12.30;99.90;;;;;;5070660;28;20195;-83
2023/03/25 02:55:42;;;;;;;11.60;5.30;;;12.30;99.90;;;;;;5071773;28;20538;-83
2023/03/25 02:58:15;;;;;;;6.90;4.63;;;12.30;99.90;;;;;;5072625;28;20270;-83
2023/03/25 03:00:42;;;;;;;8.63;5.13;;;12.40;99.90;;;;;;5072507;28;20159;-83
2023/03/25 03:03:07;;;;;;;10.27;5.07;;;12.40;99.90;;;;;;5055005;28;20211;-83
2023/03/25 03:05:42;;;;;;;11.75;5.65;;;12.40;99.90;;;;;;5054677;28;20193;-83
2023/03/25 03:08:26;;;;;;;10.48;5.47;;;12.40;99.90;;;;;;5071571;28;20206;-83
2023/03/25 03:11:10;;;;;;;11.82;6.15;;;12.40;99.90;;;;;;5076830;28;20159;-83
2023/03/25 03:14:03;;;;;;;8.20;4.72;;;12.50;99.90;;;;;;5074938;28;20240;-83
2023/03/25 03:16:59;;;;;;;15.45;5.78;;;12.60;99.90;;;;;;5074996;28;20185;-83
2023/03/25 03:19:37;;;;;;;9.63;5.03;;;12.50;99.90;;;;;;5076133;28;20629;-83
2023/03/25 03:22:20;;;;;;;6.80;4.75;;;12.50;99.90;;;;;;5074919;28;20237;-82
2023/03/25 03:24:52;;;;;;;8.82;5.32;;;12.40;99.90;;;;;;5075474;28;20221;-83
2023/03/25 03:27:22;;;;;;;7.68;3.92;;;12.40;99.90;;;;;;5077686;28;20156;-83
2023/03/25 03:29:52;;;;;;;6.07;3.92;;;12.40;99.90;;;;;;5076121;28;20176;-83
2023/03/25 03:32:36;;;;;;;6.53;3.97;;;12.40;99.90;;;;;;5075034;28;20193;-84
2023/03/25 03:35:28;;;;;;;4.22;3.03;;;12.30;99.90;;;;;;5081474;28;20181;-83
2023/03/25 03:37:59;;;;;;;4.60;2.95;;;12.30;99.90;;;;;;5080172;28;20270;-83
2023/03/25 03:40:28;;;;;;;5.05;2.88;;;12.30;99.90;;;;;;5076469;28;20163;-83
2023/03/25 03:43:27;;;;;;;5.50;2.95;;;12.30;99.90;;;;;;5077239;28;20211;-83
2023/03/25 03:45:58;;;;;;;4.15;2.95;;;12.20;99.90;;;;;;5071508;28;20187;-83
2023/03/25 03:48:28;;;;;;;4.18;3.00;;;12.20;99.90;;;;;;5092542;28;20170;-85
2023/03/25 03:51:02;;;;;;;7.07;3.50;;;12.20;99.90;;;;;;5094081;28;20240;-85
2023/03/25 03:53:39;;;;;;;5.35;3.20;;;12.20;99.90;;;;;;5094352;28;20166;-83
2023/03/25 03:56:13;;;;;;;4.43;2.85;;;12.20;99.90;;;;;;5076355;28;20155;-85
2023/03/25 03:58:43;;;;;;;5.55;3.60;;;12.10;99.90;;;;;;5075921;28;20178;-85
2023/03/25 04:01:29;;;;;;;4.07;3.03;;;12.10;99.90;;;;;;5088816;28;20163;-84
2023/03/25 04:04:19;;;;;;;6.45;3.20;;;12.00;99.90;;;;;;5095243;28;20174;-84
2023/03/25 04:07:03;;;;;;;5.43;3.50;;;12.00;99.90;;;;;;5096802;28;20140;-84
2023/03/25 04:09:32;;;;;;;4.05;2.92;;;11.90;99.90;;;;;;5092741;28;20168;-84
2023/03/25 04:12:20;;;;;;;10.98;3.20;;;11.90;99.90;;;;;;5075516;28;20175;-84
2023/03/25 04:14:46;;;;;;;5.32;3.40;;;11.80;99.90;;;;;;5075545;28;20163;-84
2023/03/25 04:17:12;;;;;;;10.07;3.55;;;11.80;99.90;;;;;;5074349;28;20534;-83
2023/03/25 04:19:38;;;;;;;5.05;3.45;;;11.80;99.90;;;;;;5073878;28;20260;-84
2023/03/25 04:22:05;;;;;;;5.07;3.58;;;11.70;99.90;;;;;;5073819;28;20237;-83
2023/03/25 04:24:32;;;;;;;6.22;3.47;;;11.70;99.90;;;;;;5074980;28;20199;-84
2023/03/25 04:27:02;;;;;;;4.95;3.40;;;11.70;99.90;;;;;;5073585;28;20183;-84
2023/03/25 04:29:32;;;;;;;9.57;3.78;;;11.60;99.90;;;;;;5073551;28;20186;-85
2023/03/25 04:31:58;;;;;;;4.15;3.25;;;11.60;99.90;;;;;;5074090;28;20167;-84
2023/03/25 04:34:25;;;;;;;6.40;3.08;;;11.50;99.90;;;;;;5074904;28;20220;-85
2023/03/25 04:36:52;;;;;;;7.10;2.70;;;11.50;99.90;;;;;;5075017;28;20190;-84
2023/03/25 04:39:22;;;;;;;7.05;3.35;;;11.50;99.90;;;;;;5074044;28;20179;-84
2023/03/25 04:41:49;;;;;;;5.32;3.28;;;11.50;99.90;;;;;;5074843;28;20207;-84
2023/03/25 04:44:16;;;;;;;4.82;3.50;;;11.40;99.90;;;;;;5074488;28;20262;-84
2023/03/25 04:46:42;;;;;;;5.22;3.15;;;11.40;99.90;;;;;;5073271;28;20589;-83
2023/03/25 04:49:17;;;;;;;5.57;3.35;;;11.40;99.90;;;;;;5075084;28;20183;-84
2023/03/25 04:51:43;;;;;;;6.47;3.33;;;11.40;99.90;;;;;;5074154;28;20187;-84
2023/03/25 04:54:10;;;;;;;4.53;2.88;;;11.30;99.90;;;;;;5074921;28;20207;-84
2023/03/25 04:56:36;;;;;;;4.90;3.30;;;11.30;99.90;;;;;;5074132;28;20179;-83
2023/03/25 04:59:03;;;;;;;4.80;3.28;;;11.30;99.90;;;;;;5073182;28;20198;-84
2023/03/25 05:01:29;;;;;;;3.88;2.72;;;11.20;99.90;;;;;;5056481;28;20616;-85
2023/03/25 05:04:06;;;;;;;5.93;3.80;;;11.30;99.90;;;;;;5072960;28;20296;-84
2023/03/25 05:06:39;;;;;;;7.03;3.40;;;11.30;99.90;;;;;;5073216;28;20147;-84
2023/03/25 05:09:08;;;;;;;5.95;3.35;;;11.20;99.90;;;;;;5072697;28;20240;-84
2023/03/25 05:11:38;;;;;;;8.23;3.50;;;11.20;99.90;;;;;;5074050;28;20178;-83
2023/03/25 05:14:07;;;;;;;5.13;3.30;;;11.30;99.90;;;;;;5073145;28;20638;-83
2023/03/25 05:16:33;;;;;;;5.90;3.55;;;11.20;99.90;;;;;;5072593;28;20650;-83
2023/03/25 05:18:59;;;;;;;5.53;3.28;;;11.20;99.90;;;;;;5056271;28;20695;-84
2023/03/25 05:21:26;;;;;;;3.58;2.80;;;11.20;99.90;;;;;;5073528;28;20254;-83
2023/03/25 05:23:51;;;;;;;7.78;3.75;;;11.20;99.90;;;;;;5072536;28;20305;-83
2023/03/25 05:26:19;;;;;;;6.95;2.80;;;11.20;99.90;;;;;;5072446;28;20258;-83
2023/03/25 05:28:45;;;;;;;3.28;2.40;;;11.20;99.90;;;;;;5072190;28;20202;-83
2023/03/25 05:31:10;;;;;;;3.13;2.53;;;11.20;99.90;;;;;;5055458;28;20635;-83
2023/03/25 05:33:42;;;;;;;4.68;3.15;;;11.20;99.90;;;;;;5055683;28;20640;-83
2023/03/25 05:36:16;;;;;;;5.47;2.55;;;11.20;99.90;;;;;;5073814;28;20221;-83
2023/03/25 05:38:43;;;;;;;6.30;3.13;;;11.20;99.90;;;;;;5072464;28;20171;-83
2023/03/25 05:41:15;;;;;;;5.57;2.95;;;11.20;99.90;;;;;;5055731;28;20191;-83
2023/03/25 05:43:46;;;;;;;6.45;3.25;;;11.20;99.90;;;;;;5073577;28;20324;-83
2023/03/25 05:46:16;;;;;;;6.95;2.90;;;11.20;99.90;;;;;;5056315;28;20175;-84
2023/03/25 05:48:42;;;;;;;8.15;3.10;;;11.20;99.90;;;;;;5090613;28;20182;-83
2023/03/25 05:51:17;;;;;;;3.92;2.67;;;11.20;99.90;;;;;;5074869;28;20174;-83
2023/03/25 05:53:48;;;;;;;4.75;3.08;;;11.20;99.90;;;;;;5092519;28;20245;-82
2023/03/25 05:56:16;;;;;;;6.65;3.50;;;11.20;99.90;;;;;;5093133;28;20208;-83
2023/03/25 05:58:43;;;;;;;7.40;4.03;;;11.20;99.90;;;;;;5092667;28;20213;-84
2023/03/25 06:01:12;;;;;;;9.93;4.00;;;11.20;99.90;;;;;;5074906;28;20174;-84
2023/03/25 06:03:39;;;;;;;10.88;3.78;;;11.20;99.90;;;;;;5091010;28;20297;-84
2023/03/25 06:06:12;;;;;;;5.55;3.40;;;11.10;99.90;;;;;;5092357;28;20170;-85
2023/03/25 06:08:43;;;;;;;8.25;3.30;;;11.10;99.90;;;;;;5091354;28;20611;-86
2023/03/25 06:11:12;;;;;;;10.38;4.20;;;11.10;99.90;;;;;;5083370;28;20252;-84
2023/03/25 06:13:39;;;;;;;6.07;3.80;;;11.10;99.90;;;;;;5081625;28;20190;-85
2023/03/25 06:16:08;;;;;;;8.48;4.40;;;11.10;99.90;;;;;;5072331;28;20659;-84
2023/03/25 06:18:37;;;;;;;5.38;3.00;;;11.00;99.90;;;;;;5072427;28;20191;-83
2023/03/25 06:21:04;;;;;;;7.30;3.72;;;11.00;99.90;;;;;;5071191;28;20198;-84
2023/03/25 06:23:34;;;;;;;6.22;3.58;;;11.00;99.90;;;;;;5053888;28;20303;-84
2023/03/25 06:26:00;;;;;;;5.75;3.53;;;11.00;99.90;;;;;;5082075;28;20178;-83
2023/03/25 06:28:26;;;;;;;7.45;4.18;;;11.00;99.90;;;;;;5070064;28;20180;-85
2023/03/25 06:30:52;;;;;;;8.65;3.88;;;11.00;99.90;;;;;;5071055;28;20211;-85
2023/03/25 06:33:18;;;;;;;15.13;5.32;;;10.90;99.90;;;;;;5074224;28;20217;-83
2023/03/25 06:35:52;;;;;;;7.07;4.00;;;10.80;99.90;;;;;;5070347;28;20175;-84
2023/03/25 06:38:18;;;;;;;6.45;3.78;;;10.80;99.90;;;;;;5071520;28;20719;-83
2023/03/25 06:40:44;;;;;;;6.53;3.63;;;10.90;99.90;;;;;;5076803;28;20179;-84
2023/03/25 06:43:09;;;;;;;4.68;3.33;;;11.00;99.90;;;;;;5078781;28;20576;-84
2023/03/25 06:45:35;;;;;;;4.85;3.17;;;11.10;99.90;;;;;;5076504;28;20632;-84
2023/03/25 06:48:01;;;;;;;6.40;3.55;;;11.20;99.90;;;;;;5071886;28;20186;-87
2023/03/25 06:50:26;;;;;;;3.90;3.28;;;11.20;99.90;;;;;;5073075;28;20194;-84
2023/03/25 06:52:52;;;;;;;5.47;2.85;;;11.20;99.90;;;;;;5077878;28;20581;-84
2023/03/25 06:55:18;;;;;;;4.40;3.00;;;11.20;99.90;;;;;;5093300;28;20190;-83
2023/03/25 06:57:43;;;;;;;6.32;2.90;;;11.20;99.90;;;;;;5086964;28;20191;-84
2023/03/25 07:00:13;;;;;;;5.93;2.65;;;11.20;99.90;;;;;;5076295;28;20223;-84
2023/03/25 07:02:39;;;;;;;5.57;3.45;;;11.10;99.90;;;;;;5077181;28;20288;-84
2023/03/25 07:05:05;;;;;;;4.47;2.58;;;11.00;99.90;;;;;;5079851;28;20282;-84
2023/03/25 07:07:31;;;;;;;6.60;3.42;;;11.10;99.90;;;;;;5083168;28;20269;-83
2023/03/25 07:09:56;;;;;;;6.90;3.15;;;11.10;99.90;;;;;;5083657;28;20738;-85
2023/03/25 07:12:23;;;;;;;7.45;3.97;;;11.00;99.90;;;;;;5074054;28;20191;-83
2023/03/25 07:14:53;;;;;;;5.85;3.22;;;10.90;99.90;;;;;;5074371;28;20187;-83
2023/03/25 07:17:18;;;;;;;8.60;3.88;;;11.00;99.90;;;;;;5072333;28;20257;-83
2023/03/25 07:19:44;;;;;;;4.88;2.97;;;11.00;99.90;;;;;;5068710;28;20203;-83
2023/03/25 07:22:10;;;;;;;12.10;5.20;;;10.90;99.90;;;;;;5039903;28;20230;-84
2023/03/25 07:24:35;;;;;;;6.25;3.38;;;10.90;99.90;;;;;;5069800;28;20619;-83
2023/03/25 07:27:01;;;;;;;5.57;3.40;;;11.00;99.90;;;;;;5077922;28;20246;-83
2023/03/25 07:29:27;;;;;;;5.72;3.78;;;11.00;99.90;;;;;;5078307;28;20184;-83
2023/03/25 07:31:52;;;;;;;7.03;3.85;;;11.00;99.90;;;;;;5077877;28;20243;-83
2023/03/25 07:34:18;;;;;;;10.32;4.20;;;11.10;99.90;;;;;;5092363;28;20198;-83
2023/03/25 07:36:44;;;;;;;7.55;3.63;;;11.10;99.90;;;;;;5073206;28;20194;-83
2023/03/25 07:39:09;;;;;;;9.77;4.57;;;11.20;99.90;;;;;;5063827;28;20187;-84
2023/03/25 07:41:35;;;;;;;8.77;4.15;;;11.30;99.90;;;;;;5073321;28;20518;-83
2023/03/25 07:44:00;;;;;;;7.47;3.78;;;11.30;99.90;;;;;;5073131;28;20558;-84
2023/03/25 07:46:26;;;;;;;7.68;4.57;;;11.30;99.90;;;;;;5073406;28;20177;-83
2023/03/25 07:48:52;;;;;;;7.20;3.80;;;11.20;99.90;;;;;;5072437;28;20225;-84
2023/03/25 07:51:18;;;;;;;7.47;3.95;;;11.30;99.90;;;;;;5077306;28;20179;-83
2023/03/25 07:53:45;;;;;;;8.15;4.50;;;11.30;99.90;;;;;;5073248;28;20191;-83
2023/03/25 07:56:11;;;;;;;7.07;3.42;;;11.30;99.90;;;;;;5072342;28;20171;-83
2023/03/25 07:58:37;;;;;;;5.50;3.53;;;11.20;99.90;;;;;;5075407;28;20235;-82
2023/03/25 08:01:04;;;;;;;8.52;3.47;;;11.20;99.90;;;;;;5081862;28;20190;-83
2023/03/25 08:03:30;;;;;;;7.38;3.38;;;11.30;99.90;;;;;;5073622;28;20216;-83
2023/03/25 08:06:02;;;;;;;6.18;3.88;;;11.40;99.90;;;;;;5091664;28;20233;-83
2023/03/25 08:08:31;;;;;;;9.10;3.78;;;11.50;99.90;;;;;;5092652;28;20195;-84
2023/03/25 08:10:57;;;;;;;7.97;4.05;;;11.60;99.90;;;;;;5071416;28;20185;-84
2023/03/25 08:13:23;;;;;;;7.05;3.65;;;11.70;99.90;;;;;;5073045;28;20194;-83
2023/03/25 08:15:48;;;;;;;7.40;3.90;;;11.70;99.90;;;;;;5084681;28;20191;-83
2023/03/25 08:18:14;;;;;;;5.70;3.60;;;11.80;99.90;;;;;;5073288;28;20180;-83
2023/03/25 08:20:40;;;;;;;7.82;3.60;;;11.90;99.90;;;;;;5079847;28;20239;-84
2023/03/25 08:23:09;;;;;;;12.60;4.93;;;11.90;99.90;;;;;;5071050;28;20255;-84
2023/03/25 08:25:36;;;;;;;8.95;3.95;;;12.00;99.90;;;;;;5072986;28;20202;-84
2023/03/25 08:28:02;;;;;;;8.93;4.03;;;12.00;99.90;;;;;;5073984;28;20195;-84
2023/03/25 08:30:28;;;;;;;6.88;3.80;;;11.90;99.90;;;;;;5073723;28;20278;-86
2023/03/25 08:32:54;;;;;;;8.23;4.13;;;12.00;99.90;;;;;;5077905;28;20321;-86
2023/03/25 08:35:22;;;;;;;6.30;3.35;;;12.10;99.90;;;;;;5074777;28;20182;-86
2023/03/25 08:37:49;;;;;;;7.32;3.67;;;12.10;99.90;;;;;;5071596;28;20179;-85
2023/03/25 08:40:18;;;;;;;7.68;3.92;;;12.20;99.90;;;;;;5092707;28;20228;-85
2023/03/25 08:42:45;;;;;;;10.55;4.10;;;12.20;99.90;;;;;;5091538;28;20301;-85
2023/03/25 08:45:12;;;;;;;6.25;3.80;;;12.00;99.90;;;;;;5075447;28;20189;-86
2023/03/25 08:47:38;;;;;;;9.38;3.25;;;11.90;99.90;;;;;;5066084;28;20255;-86
2023/03/25 08:50:04;;;;;;;4.55;2.95;;;11.80;99.90;;;;;;5087099;28;20179;-86
2023/03/25 08:52:30;;;;;;;8.40;2.95;;;11.80;99.90;;;;;;5071333;28;20191;-86
2023/03/25 08:54:55;;;;;;;5.90;3.60;;;11.80;99.90;;;;;;5082373;28;20262;-86
2023/03/25 08:57:21;;;;;;;5.32;3.50;;;11.70;99.90;;;;;;5061576;28;20182;-85
2023/03/25 08:59:47;;;;;;;6.32;3.53;;;11.80;99.90;;;;;;5073019;28;20705;-85
2023/03/25 09:02:13;;;;;;;5.38;2.75;;;11.80;99.90;;;;;;5078624;28;20653;-84
2023/03/25 09:04:38;;;;;;;5.90;3.25;;;11.80;99.90;;;;;;5071461;28;20560;-85
2023/03/25 09:07:09;;;;;;;4.97;3.05;;;11.80;99.90;;;;;;5058268;28;20729;-86
2023/03/25 09:09:37;;;;;;;6.72;3.88;;;11.80;99.90;;;;;;5057539;28;20179;-85
2023/03/25 09:12:04;;;;;;;7.30;3.35;;;11.80;99.90;;;;;;5070439;28;20187;-84
2023/03/25 09:14:29;;;;;;;5.13;3.50;;;11.90;99.90;;;;;;5071808;28;20183;-84
2023/03/25 09:16:55;;;;;;;8.52;3.55;;;11.90;99.90;;;;;;5069541;28;20193;-84
2023/03/25 09:19:21;;;;;;;8.93;3.55;;;11.80;99.90;;;;;;5068971;28;20715;-84
2023/03/25 09:21:47;;;;;;;7.13;4.05;;;11.70;99.90;;;;;;5070121;28;20231;-83
2023/03/25 09:24:12;;;;;;;6.40;4.22;;;11.80;99.90;;;;;;5055324;28;20662;-84
2023/03/25 09:26:38;;;;;;;9.27;3.53;;;11.90;99.90;;;;;;5057285;28;20252;-83
2023/03/25 09:29:04;;;;;;;6.70;3.50;;;12.00;99.90;;;;;;5069595;28;20693;-84
2023/03/25 09:31:29;;;;;;;6.57;4.05;;;12.00;99.90;;;;;;5036621;28;20187;-84
2023/03/25 09:33:55;;;;;;;7.45;3.63;;;11.90;99.90;;;;;;5071507;28;20267;-83
2023/03/25 09:36:21;;;;;;;11.02;3.72;;;11.90;99.90;;;;;;5054509;28;20317;-83
2023/03/25 09:38:47;;;;;;;6.78;4.10;;;11.80;99.90;;;;;;5075300;28;20212;-84
2023/03/25 09:41:25;;;;;;;5.72;3.20;;;11.80;99.90;;;;;;5071023;28;20260;-83
2023/03/25 09:44:04;;;;;;;9.57;3.83;;;11.80;99.90;;;;;;5072631;28;20274;-84
2023/03/25 09:46:30;;;;;;;8.85;4.47;;;11.90;99.90;;;;;;5072707;28;20182;-84
2023/03/25 09:48:57;;;;;;;5.32;3.35;;;12.00;99.90;;;;;;5072634;28;20191;-84
2023/03/25 09:51:31;;;;;;;10.90;3.80;;;12.00;99.90;;;;;;5054500;28;20194;-84
2023/03/25 09:54:15;;;;;;;5.72;3.95;;;12.00;99.90;;;;;;5073502;28;20167;-84
2023/03/25 09:56:43;;;;;;;8.25;4.05;;;12.10;99.90;;;;;;5081140;28;20281;-84
2023/03/25 09:59:16;;;;;;;7.90;4.32;;;12.20;99.90;;;;;;5075204;28;20214;-85
2023/03/25 10:02:03;;;;;;;7.43;4.10;;;12.10;99.90;;;;;;5072086;28;20540;-84
2023/03/25 10:04:50;;;;;;;10.27;4.88;;;12.20;99.90;;;;;;5072930;28;20523;-84
2023/03/25 10:07:50;;;;;;;9.63;3.80;;;12.20;99.90;;;;;;5072979;28;20682;-83
2023/03/25 10:10:34;;;;;;;7.30;3.80;;;12.10;99.90;;;;;;5073178;28;20159;-83
2023/03/25 10:13:21;;;;;;;9.63;4.63;;;12.00;99.90;;;;;;5071914;28;20179;-84
2023/03/25 10:16:22;;;;;;;9.93;4.45;;;12.10;99.90;;;;;;5073108;28;20166;-84
2023/03/25 10:18:53;;;;;;;7.18;3.92;;;12.10;99.90;;;;;;5060566;28;20278;-85
2023/03/25 10:21:34;;;;;;;8.50;4.00;;;12.10;99.90;;;;;;5070909;28;20190;-83
2023/03/25 10:24:02;;;;;;;6.20;3.80;;;12.00;99.90;;;;;;5071654;28;20291;-85
2023/03/25 10:26:43;;;;;;;6.50;3.97;;;12.10;99.90;;;;;;5071356;28;20191;-84
2023/03/25 10:29:22;;;;;;;12.45;4.72;;;12.00;99.90;;;;;;5071746;28;20228;-83
2023/03/25 10:31:53;;;;;;;6.70;3.88;;;12.20;99.90;;;;;;5073424;28;20171;-85
2023/03/25 10:34:29;;;;;;;8.15;4.55;;;12.20;99.90;;;;;;5070436;28;20225;-85
2023/03/25 10:36:59;;;;;;;7.10;3.95;;;12.20;99.90;;;;;;5079303;28;20245;-85
2023/03/25 10:39:33;;;;;;;9.38;4.68;;;12.20;99.90;;;;;;5079071;28;20175;-85
2023/03/25 10:42:44;;;;;;;5.80;3.42;;;12.10;99.90;;;;;;5080792;28;20206;-85
2023/03/25 10:45:15;;;;;;;8.30;4.18;;;12.10;99.90;;;;;;5079489;28;20663;-85
2023/03/25 10:47:43;;;;;;;6.53;4.05;;;12.10;99.90;;;;;;5091025;28;20671;-84
2023/03/25 10:50:19;;;;;;;9.98;4.90;;;12.10;99.90;;;;;;5092254;28;20235;-84
2023/03/25 10:52:50;;;;;;;7.30;3.90;;;12.20;99.90;;;;;;5092210;28;20224;-84
2023/03/25 10:55:24;;;;;;;5.35;3.40;;;12.20;99.90;;;;;;5084499;28;20171;-85
2023/03/25 10:57:51;;;;;;;5.60;4.10;;;12.30;99.90;;;;;;5071949;28;20163;-83
2023/03/25 11:00:17;;;;;;;5.75;3.92;;;12.40;99.90;;;;;;5071673;28;20551;-84
2023/03/25 11:02:44;;;;;;;8.80;4.22;;;12.50;99.90;;;;;;5070412;28;20219;-83
2023/03/25 11:05:14;;;;;;;6.05;3.47;;;12.50;99.90;;;;;;5071590;28;20562;-84
2023/03/25 11:07:43;;;;;;;5.63;4.20;;;12.50;99.90;;;;;;5071157;28;20177;-84
2023/03/25 11:10:23;;;;;;;7.45;3.38;;;12.60;99.90;;;;;;5070730;28;20710;-84
2023/03/25 11:12:54;;;;;;;5.30;3.83;;;12.60;99.90;;;;;;5070193;28;20195;-86
2023/03/25 11:15:28;;;;;;;9.30;3.88;;;12.60;99.90;;;;;;5070319;28;20172;-85
2023/03/25 11:18:20;;;;;;;6.93;4.57;;;12.60;99.90;;;;;;5071965;28;20242;-84
2023/03/25 11:20:49;;;;;;;7.15;3.80;;;12.70;99.90;;;;;;5070565;28;20179;-83
2023/03/25 11:23:33;;;;;;;6.60;3.83;;;12.70;99.90;;;;;;5077178;28;20713;-85
2023/03/25 11:26:12;;;;;;;7.38;3.17;;;12.80;99.90;;;;;;5082462;28;20643;-84
2023/03/25 11:28:44;;;;;;;9.15;3.63;;;13.00;99.90;;;;;;5076781;28;20262;-84
2023/03/25 11:31:15;;;;;;;6.45;3.10;;;13.10;99.90;;;;;;5074695;28;20226;-84
2023/03/25 11:33:44;;;;;;;6.68;3.65;;;13.10;99.90;;;;;;5074609;28;20225;-84
2023/03/25 11:36:21;;;;;;;7.07;3.63;;;13.00;99.90;;;;;;5093000;28;20190;-84
2023/03/25 11:38:55;;;;;;;8.07;3.88;;;13.00;99.90;;;;;;5095567;28;20166;-84
2023/03/25 11:41:21;;;;;;;4.50;2.70;;;13.00;99.90;;;;;;5094197;28;20182;-83
2023/03/25 11:43:48;;;;;;;10.20;3.92;;;13.00;99.90;;;;;;5076749;28;20619;-83
2023/03/25 11:46:17;;;;;;;5.72;3.28;;;13.00;99.90;;;;;;5095274;28;20210;-83
2023/03/25 11:48:49;;;;;;;7.40;3.03;;;13.00;99.90;;;;;;5077067;28;20223;-82
2023/03/25 11:51:28;;;;;;;4.60;2.53;;;13.00;99.90;;;;;;5077616;28;20645;-85
2023/03/25 11:54:00;;;;;;;7.80;3.03;;;13.10;99.90;;;;;;5094296;28;20179;-83
2023/03/25 11:56:34;;;;;;;10.52;3.33;;;13.30;99.90;;;;;;5086070;28;20189;-85
2023/03/25 11:59:01;;;;;;;3.72;2.60;;;13.40;99.90;;;;;;5083318;28;20174;-83
2023/03/25 12:01:28;;;;;;;5.03;2.58;;;13.40;99.90;;;;;;5081432;28;20175;-86
2023/03/25 12:04:19;;;;;;;2.53;1.98;;;13.50;99.90;;;;;;5092952;28;20285;-84
2023/03/25 12:07:08;;;;;;;6.55;2.63;;;13.40;99.90;;;;;;5084810;28;20210;-83
2023/03/25 12:09:34;;;;;;;11.05;2.47;;;13.50;99.90;;;;;;5094642;28;20166;-82
2023/03/25 12:12:12;;;;;;;5.95;2.50;;;13.70;99.90;;;;;;5076851;28;20186;-82
2023/03/25 12:14:44;;;;;;;4.35;3.08;;;13.80;99.90;;;;;;5093311;28;20170;-83
2023/03/25 12:20:54;;;;;;;3.45;2.33;;;13.60;99.90;;;;;;5325397;22;20246;-82
2023/03/25 12:23:47;;;;;;;11.30;4.43;;;13.60;99.90;;;;;;5056538;28;20233;-82
2023/03/25 12:26:17;;;;;;;7.30;2.90;;;13.70;99.90;;;;;;5074193;28;20175;-83
2023/03/25 12:29:27;;;;;;;6.00;3.33;;;13.80;99.90;;;;;;5073724;28;20648;-82
2023/03/25 12:32:28;;;;;;;6.82;3.25;;;13.90;99.90;;;;;;5030802;28;20183;-84
2023/03/25 12:35:24;;;;;;;5.32;3.30;;;13.90;99.90;;;;;;5026750;28;20187;-83
2023/03/25 12:38:02;;;;;;;3.80;2.17;;;14.00;99.90;;;;;;5055997;28;20194;-84
2023/03/25 12:40:53;;;;;;;5.72;2.05;;;14.00;99.90;;;;;;5055810;28;20592;-84
2023/03/25 12:43:28;;;;;;;5.57;2.70;;;14.00;99.90;;;;;;5055561;28;20218;-83
2023/03/25 12:46:21;;;;;;;3.92;2.63;;;14.00;99.90;;;;;;5055849;28;20303;-83
2023/03/25 12:48:58;;;;;;;5.90;2.60;;;14.00;99.90;;;;;;5068685;28;20197;-82
2023/03/25 12:51:24;;;;;;;6.35;2.72;;;13.90;99.90;;;;;;5063076;28;20274;-82
2023/03/25 12:54:19;;;;;;;5.07;2.30;;;13.80;99.90;;;;;;5072437;28;20273;-85
2023/03/25 12:56:57;;;;;;;3.83;2.15;;;13.80;99.90;;;;;;5064284;28;20652;-82
2023/03/25 12:59:43;;;;;;;5.15;2.28;;;14.00;99.90;;;;;;5071186;28;20576;-83
2023/03/25 13:02:25;;;;;;;6.57;2.35;;;14.00;99.90;;;;;;5070828;28;20264;-83
2023/03/25 13:05:03;;;;;;;2.78;2.10;;;14.10;99.90;;;;;;5053980;28;20195;-82
2023/03/25 13:07:39;;;;;;;3.75;2.80;;;14.10;99.90;;;;;;5054000;28;20986;-81
2023/03/25 13:10:22;;;;;;;8.48;2.97;;;14.20;99.90;;;;;;5054208;28;20178;-81
2023/03/25 13:12:56;;;;;;;5.50;2.42;;;14.20;99.90;;;;;;5072721;28;20248;-82